KMOD/MOD METAR and TAF weather

Enter ICAO airport designator
Station Type Date Time Source
KMOD METAR 2019/12/08 10:53 UTC NOAA

KMOD 081053Z AUTO 12005KT 10SM BKN110 12/11 A2998 RMK AO2 SLP150 T01170106


Station Type Date Time Source
KMOD Decoded METAR 2019/12/08 10:53 UTC NOAA

MODESTO CITY CO SHAM FLD, CA, United States (KMOD) 37-37N 120-57W 29M
Dec 08, 2019 - 05:53 AM EST / 2019.12.08 1053 UTC
Wind: from the ESE (120 degrees) at 6 MPH (5 KT):0
Visibility: 10 mile(s):0
Sky conditions: mostly cloudy
Temperature: 53.1 F (11.7 C)
Dew Point: 51.1 F (10.6 C)
Relative Humidity: 92%
Pressure (altimeter): 29.98 in. Hg (1015 hPa)
ob: KMOD 081053Z AUTO 12005KT 10SM BKN110 12/11 A2998 RMK AO2 SLP150 T01170106
cycle: 11

Station Type Date Time Source
KMOD TAF 2019/12/08 12:36 UTC NOAA

TAF KMOD 081130Z 0812/0912 12005KT P6SM BKN080
TEMPO 0813/0817 5SM -SHRA BKN025
FM081900 15005KT P6SM BKN050

Example: see airport list